Time;durP1;ratioP1;P1;durP2;ratioP2;P2;SDS_P1;SDS_P2;PMS_P1;PMS_P2;Temp;Humidity;BMP_temperature;BMP_pressure;BME280_temperature;BME280_humidity;BME280_pressure;Samples;Min_cycle;Max_cycle;Signal;HPM_P1;HPM_P2
2023/11/01 00:00:57;;;;;;;17.50;2.60;;;;;;;;;;5099659;28;20437;-74
2023/11/01 00:03:24;;;;;;;17.83;2.43;;;;;;;;;;5098279;28;20396;-75
2023/11/01 00:05:51;;;;;;;17.70;2.17;;;;;;;;;;5089413;28;20822;-75
2023/11/01 00:08:17;;;;;;;16.70;2.28;;;;;;;;;;5095519;28;20410;-76
2023/11/01 00:10:44;;;;;;;17.33;2.38;;;;;;;;;;5090072;28;20412;-74
2023/11/01 00:13:11;;;;;;;17.75;2.45;;;;;;;;;;5101140;28;20407;-76
2023/11/01 00:15:37;;;;;;;17.95;2.30;;;;;;;;;;5103800;28;20432;-74
2023/11/01 00:18:05;;;;;;;18.20;2.20;;;;;;;;;;5104065;28;20477;-75
2023/11/01 00:20:32;;;;;;;17.50;2.10;;;;;;;;;;5103772;28;20855;-73
2023/11/01 00:22:58;;;;;;;18.20;2.53;;;;;;;;;;5108676;28;20405;-73
2023/11/01 00:25:25;;;;;;;19.60;2.92;;;;;;;;;;5097558;28;20398;-76
2023/11/01 00:27:53;;;;;;;16.30;2.10;;;;;;;;;;5100198;28;20414;-78
2023/11/01 00:30:19;;;;;;;17.63;2.30;;;;;;;;;;5101812;28;20409;-77
2023/11/01 00:32:46;;;;;;;20.48;3.05;;;;;;;;;;5104098;28;21121;-77
2023/11/01 00:35:15;;;;;;;16.45;2.50;;;;;;;;;;5102643;28;20845;-76
2023/11/01 00:37:41;;;;;;;18.57;2.43;;;;;;;;;;5091286;28;20404;-76
2023/11/01 00:40:08;;;;;;;17.75;3.10;;;;;;;;;;5103863;28;20889;-78
2023/11/01 00:42:36;;;;;;;16.77;2.70;;;;;;;;;;5094892;28;20452;-75
2023/11/01 00:45:04;;;;;;;18.35;2.42;;;;;;;;;;5092798;28;20408;-76
2023/11/01 00:47:30;;;;;;;17.88;2.42;;;;;;;;;;5102483;28;20487;-78
2023/11/01 00:49:57;;;;;;;17.70;2.70;;;;;;;;;;5085877;28;20423;-76
2023/11/01 00:52:25;;;;;;;20.65;2.60;;;;;;;;;;5100967;28;20421;-78
2023/11/01 00:54:52;;;;;;;18.05;2.10;;;;;;;;;;5108409;28;20449;-76
2023/11/01 00:57:18;;;;;;;18.83;2.13;;;;;;;;;;5098176;28;20442;-77
2023/11/01 00:59:45;;;;;;;19.95;2.58;;;;;;;;;;5100414;28;20404;-76
2023/11/01 01:02:12;;;;;;;19.00;2.55;;;;;;;;;;5087827;28;20437;-77
2023/11/01 01:04:38;;;;;;;20.25;3.00;;;;;;;;;;5102272;28;20411;-79
2023/11/01 01:07:05;;;;;;;19.17;3.25;;;;;;;;;;5099389;28;20505;-76
2023/11/01 01:09:33;;;;;;;17.50;2.50;;;;;;;;;;5087570;28;20442;-78
2023/11/01 01:11:59;;;;;;;18.02;2.47;;;;;;;;;;5105553;28;20757;-76
2023/11/01 01:14:26;;;;;;;18.80;2.90;;;;;;;;;;5097530;28;20406;-77
2023/11/01 01:16:53;;;;;;;17.17;2.47;;;;;;;;;;5099365;28;20522;-76
2023/11/01 01:19:19;;;;;;;17.50;3.25;;;;;;;;;;5103693;28;20799;-77
2023/11/01 01:21:46;;;;;;;19.38;3.20;;;;;;;;;;5106963;28;20732;-76
2023/11/01 01:24:12;;;;;;;19.33;2.90;;;;;;;;;;5102121;28;20847;-75
2023/11/01 01:26:40;;;;;;;20.50;2.78;;;;;;;;;;5099588;28;20482;-77
2023/11/01 01:29:07;;;;;;;20.60;3.17;;;;;;;;;;5102575;28;20500;-78
2023/11/01 01:31:34;;;;;;;19.15;3.28;;;;;;;;;;5107310;28;20469;-76
2023/11/01 01:34:00;;;;;;;22.38;3.70;;;;;;;;;;5099534;28;20801;-76
2023/11/01 01:36:27;;;;;;;18.73;3.50;;;;;;;;;;5104282;28;20401;-77
2023/11/01 01:38:54;;;;;;;18.30;3.40;;;;;;;;;;5102729;28;20515;-76
2023/11/01 01:41:20;;;;;;;22.98;3.67;;;;;;;;;;5104091;28;20421;-76
2023/11/01 01:43:48;;;;;;;20.10;3.95;;;;;;;;;;5102901;28;20470;-76
2023/11/01 01:46:16;;;;;;;20.55;3.10;;;;;;;;;;5102068;28;20461;-76
2023/11/01 01:48:43;;;;;;;16.58;2.63;;;;;;;;;;5102005;28;20429;-76
2023/11/01 01:51:10;;;;;;;19.20;2.60;;;;;;;;;;5079238;28;20417;-75
2023/11/01 01:53:38;;;;;;;17.50;2.60;;;;;;;;;;5106310;28;20421;-76
2023/11/01 01:56:06;;;;;;;19.83;2.45;;;;;;;;;;5105659;28;20402;-78
2023/11/01 01:58:34;;;;;;;17.80;2.40;;;;;;;;;;5089248;28;20406;-77
2023/11/01 02:01:03;;;;;;;18.60;2.40;;;;;;;;;;5092587;28;20446;-77
2023/11/01 02:03:30;;;;;;;18.08;2.10;;;;;;;;;;5100102;28;20396;-76
2023/11/01 02:05:57;;;;;;;22.35;3.08;;;;;;;;;;5087609;28;20417;-77
2023/11/01 02:08:25;;;;;;;17.25;2.40;;;;;;;;;;5102239;28;20439;-76
2023/11/01 02:10:51;;;;;;;15.88;2.40;;;;;;;;;;5102912;28;20406;-76
2023/11/01 02:13:18;;;;;;;17.25;2.50;;;;;;;;;;5102392;28;20414;-77
2023/11/01 02:15:45;;;;;;;18.20;2.90;;;;;;;;;;5104957;28;20903;-72
2023/11/01 02:18:13;;;;;;;16.80;2.40;;;;;;;;;;5086926;28;20418;-76
2023/11/01 02:20:41;;;;;;;18.23;3.10;;;;;;;;;;5101637;28;20777;-75
2023/11/01 02:23:10;;;;;;;16.35;2.60;;;;;;;;;;5105564;28;20931;-75
2023/11/01 02:25:39;;;;;;;19.50;2.50;;;;;;;;;;5086432;28;20475;-76
2023/11/01 02:28:06;;;;;;;22.63;2.90;;;;;;;;;;5109610;28;20419;-76
2023/11/01 02:30:33;;;;;;;16.58;2.40;;;;;;;;;;5087735;28;20408;-76
2023/11/01 02:33:00;;;;;;;16.58;2.20;;;;;;;;;;5106934;28;20750;-75
2023/11/01 02:35:27;;;;;;;15.77;2.40;;;;;;;;;;5099252;28;20810;-76
2023/11/01 02:37:53;;;;;;;18.15;2.65;;;;;;;;;;5102963;28;20392;-78
2023/11/01 02:40:20;;;;;;;17.88;2.92;;;;;;;;;;5103712;28;20440;-78
2023/11/01 02:42:51;;;;;;;16.30;2.40;;;;;;;;;;5105318;28;20410;-76
2023/11/01 02:45:17;;;;;;;16.83;2.00;;;;;;;;;;5100978;28;20464;-77
2023/11/01 02:47:44;;;;;;;16.50;2.33;;;;;;;;;;5102526;28;20404;-76
2023/11/01 02:50:12;;;;;;;19.10;2.65;;;;;;;;;;5102846;28;20402;-77
2023/11/01 02:52:39;;;;;;;15.65;2.10;;;;;;;;;;5100710;28;21221;-77
2023/11/01 02:55:07;;;;;;;16.65;2.42;;;;;;;;;;5095826;28;20439;-76
2023/11/01 02:57:34;;;;;;;17.70;2.10;;;;;;;;;;5092153;28;20416;-77
2023/11/01 03:00:06;;;;;;;19.77;2.15;;;;;;;;;;5099677;28;20452;-76
2023/11/01 03:02:33;;;;;;;17.30;2.03;;;;;;;;;;5098485;28;20404;-77
2023/11/01 03:05:00;;;;;;;17.08;2.30;;;;;;;;;;5091568;28;20396;-78
2023/11/01 03:07:26;;;;;;;15.85;2.20;;;;;;;;;;5101750;28;20462;-78
2023/11/01 03:09:53;;;;;;;18.23;2.28;;;;;;;;;;5097589;28;20804;-78
2023/11/01 03:12:20;;;;;;;19.30;3.28;;;;;;;;;;5084453;28;20855;-79
2023/11/01 03:14:46;;;;;;;19.38;2.30;;;;;;;;;;5097957;28;20934;-79
2023/11/01 03:17:15;;;;;;;18.33;2.35;;;;;;;;;;5099361;28;20952;-78
2023/11/01 03:19:42;;;;;;;17.95;2.90;;;;;;;;;;5100461;28;20407;-78
2023/11/01 03:22:08;;;;;;;17.98;3.10;;;;;;;;;;5091236;28;20413;-79
2023/11/01 03:24:35;;;;;;;17.92;2.65;;;;;;;;;;5081262;28;20402;-79
2023/11/01 03:27:03;;;;;;;18.40;2.30;;;;;;;;;;5101969;28;20412;-80
2023/11/01 03:29:30;;;;;;;17.48;2.50;;;;;;;;;;5101713;28;20416;-79
2023/11/01 03:31:57;;;;;;;16.80;2.30;;;;;;;;;;5100765;28;20423;-79
2023/11/01 03:34:25;;;;;;;16.73;2.35;;;;;;;;;;5101386;28;20426;-80
2023/11/01 03:36:53;;;;;;;18.30;2.97;;;;;;;;;;5088616;28;20406;-81
2023/11/01 03:39:19;;;;;;;16.77;2.38;;;;;;;;;;5092949;28;20449;-78
2023/11/01 03:41:46;;;;;;;16.80;2.60;;;;;;;;;;5101889;28;21349;-80
2023/11/01 03:44:13;;;;;;;17.02;2.60;;;;;;;;;;5102644;28;20436;-79
2023/11/01 03:46:39;;;;;;;17.75;2.70;;;;;;;;;;5102206;28;20494;-79
2023/11/01 03:49:06;;;;;;;17.73;2.22;;;;;;;;;;5093929;28;20539;-79
2023/11/01 03:51:34;;;;;;;15.70;2.10;;;;;;;;;;5097484;28;21000;-79
2023/11/01 03:54:01;;;;;;;19.38;2.28;;;;;;;;;;5095825;28;20809;-78
2023/11/01 03:56:27;;;;;;;15.20;2.20;;;;;;;;;;5094540;28;20497;-80
2023/11/01 03:58:54;;;;;;;15.75;2.20;;;;;;;;;;5096971;28;20421;-78
2023/11/01 04:01:21;;;;;;;16.60;1.90;;;;;;;;;;5081065;28;20414;-79
2023/11/01 04:03:48;;;;;;;16.30;2.20;;;;;;;;;;5101193;28;20411;-80
2023/11/01 04:06:14;;;;;;;17.83;2.30;;;;;;;;;;5099022;28;20410;-79
2023/11/01 04:08:42;;;;;;;16.20;2.42;;;;;;;;;;5100229;28;20483;-80
2023/11/01 04:11:09;;;;;;;16.80;2.60;;;;;;;;;;5099179;28;20421;-78
2023/11/01 04:13:35;;;;;;;16.80;2.50;;;;;;;;;;5097388;28;20425;-78
2023/11/01 04:16:02;;;;;;;17.48;2.30;;;;;;;;;;5081022;28;21008;-79
2023/11/01 04:18:29;;;;;;;18.40;2.50;;;;;;;;;;5096700;28;20788;-79
2023/11/01 04:20:56;;;;;;;15.80;2.10;;;;;;;;;;5097475;28;20402;-80
2023/11/01 04:23:22;;;;;;;16.73;2.20;;;;;;;;;;5098418;28;20437;-78
2023/11/01 04:25:51;;;;;;;16.20;2.17;;;;;;;;;;5101544;28;20461;-79
2023/11/01 04:28:17;;;;;;;17.80;3.35;;;;;;;;;;5099682;28;20408;-79
2023/11/01 04:30:44;;;;;;;16.70;2.25;;;;;;;;;;5098558;28;20434;-79
2023/11/01 04:33:11;;;;;;;15.63;1.97;;;;;;;;;;5100918;28;20492;-80
2023/11/01 04:35:38;;;;;;;17.80;2.47;;;;;;;;;;5098207;28;20400;-79
2023/11/01 04:38:05;;;;;;;15.88;2.10;;;;;;;;;;5088263;28;20910;-80
2023/11/01 04:40:32;;;;;;;15.10;2.00;;;;;;;;;;5090006;28;20490;-79
2023/11/01 04:43:00;;;;;;;16.70;2.60;;;;;;;;;;5097128;28;20414;-79
2023/11/01 04:45:27;;;;;;;15.20;1.98;;;;;;;;;;5101946;28;20404;-79
2023/11/01 04:47:53;;;;;;;20.90;2.33;;;;;;;;;;5100432;28;20418;-79
2023/11/01 04:50:21;;;;;;;15.40;2.00;;;;;;;;;;5106410;28;20408;-79
2023/11/01 04:52:47;;;;;;;17.80;2.10;;;;;;;;;;5096795;28;20465;-78
2023/11/01 04:55:14;;;;;;;16.45;1.90;;;;;;;;;;5097969;28;20926;-80
2023/11/01 04:57:43;;;;;;;15.00;2.00;;;;;;;;;;5099388;28;20498;-79
2023/11/01 05:00:15;;;;;;;17.90;1.80;;;;;;;;;;5087336;28;20932;-78
2023/11/01 05:02:45;;;;;;;15.10;2.17;;;;;;;;;;5100736;28;20401;-78
2023/11/01 05:05:12;;;;;;;18.00;1.73;;;;;;;;;;5103227;28;21040;-78
2023/11/01 05:07:40;;;;;;;17.67;2.53;;;;;;;;;;5095398;28;20406;-78
2023/11/01 05:10:07;;;;;;;18.20;2.08;;;;;;;;;;5103018;28;20427;-77
2023/11/01 05:12:33;;;;;;;15.48;1.70;;;;;;;;;;5103519;28;20410;-78
2023/11/01 05:15:00;;;;;;;17.55;2.00;;;;;;;;;;5082727;28;20410;-78
2023/11/01 05:17:28;;;;;;;18.10;2.08;;;;;;;;;;5115951;27;20800;-78
2023/11/01 05:19:55;;;;;;;18.95;1.90;;;;;;;;;;5097097;28;20413;-78
2023/11/01 05:22:22;;;;;;;22.53;2.03;;;;;;;;;;5102727;28;20903;-77
2023/11/01 05:24:49;;;;;;;14.60;1.80;;;;;;;;;;5097432;28;20406;-78
2023/11/01 05:27:16;;;;;;;14.70;1.80;;;;;;;;;;5099095;28;20735;-77
2023/11/01 05:29:43;;;;;;;16.02;1.88;;;;;;;;;;5102575;28;20408;-77
2023/11/01 05:32:09;;;;;;;14.77;1.80;;;;;;;;;;5108570;28;20405;-78
2023/11/01 05:34:37;;;;;;;16.67;2.30;;;;;;;;;;5099480;28;21142;-78
2023/11/01 05:37:09;;;;;;;17.50;2.70;;;;;;;;;;5102268;28;20414;-76
2023/11/01 05:39:35;;;;;;;15.60;1.95;;;;;;;;;;5098299;28;20469;-77
2023/11/01 05:42:02;;;;;;;17.70;2.13;;;;;;;;;;5102802;28;20425;-78
2023/11/01 05:44:30;;;;;;;16.60;2.60;;;;;;;;;;5101017;28;20502;-78
2023/11/01 05:47:00;;;;;;;15.48;2.38;;;;;;;;;;5109401;28;20405;-77
2023/11/01 05:49:27;;;;;;;15.00;1.85;;;;;;;;;;5098694;28;20412;-77
2023/11/01 05:51:55;;;;;;;14.90;2.00;;;;;;;;;;5103113;28;20896;-78
2023/11/01 05:54:21;;;;;;;15.35;2.30;;;;;;;;;;5099994;28;20416;-77
2023/11/01 05:56:48;;;;;;;15.17;2.30;;;;;;;;;;5105532;28;21032;-77
2023/11/01 05:59:15;;;;;;;15.90;1.70;;;;;;;;;;5100407;28;20427;-76
2023/11/01 06:01:41;;;;;;;20.40;2.17;;;;;;;;;;5102704;28;20452;-77
2023/11/01 06:04:08;;;;;;;17.00;2.10;;;;;;;;;;5102498;28;20448;-77
2023/11/01 06:06:35;;;;;;;17.40;2.40;;;;;;;;;;5101302;27;20402;-77
2023/11/01 06:09:03;;;;;;;15.98;2.13;;;;;;;;;;5081687;28;20466;-77
2023/11/01 06:11:31;;;;;;;15.00;1.90;;;;;;;;;;5101980;28;20437;-78
2023/11/01 06:13:58;;;;;;;15.43;1.90;;;;;;;;;;5108148;28;20416;-78
2023/11/01 06:16:24;;;;;;;17.70;2.00;;;;;;;;;;5101487;28;20489;-77
2023/11/01 06:18:51;;;;;;;15.80;1.80;;;;;;;;;;5100583;28;20402;-77
2023/11/01 06:21:17;;;;;;;18.45;2.20;;;;;;;;;;5101745;28;20491;-79
2023/11/01 06:23:44;;;;;;;15.00;2.00;;;;;;;;;;5081950;28;20984;-76
2023/11/01 06:26:16;;;;;;;16.30;1.90;;;;;;;;;;5098844;28;20934;-77
2023/11/01 06:28:43;;;;;;;15.82;1.92;;;;;;;;;;5090184;28;20397;-77
2023/11/01 06:31:10;;;;;;;17.42;2.00;;;;;;;;;;5112633;27;20935;-77
2023/11/01 06:33:37;;;;;;;16.13;2.28;;;;;;;;;;5089927;28;20976;-76
2023/11/01 06:36:04;;;;;;;14.90;1.90;;;;;;;;;;5098902;28;20408;-77
2023/11/01 06:38:32;;;;;;;17.20;2.00;;;;;;;;;;5100887;28;20429;-77
2023/11/01 06:40:58;;;;;;;17.15;2.17;;;;;;;;;;5102961;28;20424;-76
2023/11/01 06:43:27;;;;;;;16.00;2.20;;;;;;;;;;5101770;28;20439;-79
2023/11/01 06:45:53;;;;;;;14.90;2.10;;;;;;;;;;5092013;28;20899;-77
2023/11/01 06:48:21;;;;;;;15.90;1.80;;;;;;;;;;5083087;28;20515;-77
2023/11/01 06:50:48;;;;;;;15.32;1.92;;;;;;;;;;5097122;28;20409;-79
2023/11/01 06:53:14;;;;;;;18.48;2.88;;;;;;;;;;5099171;28;20468;-78
2023/11/01 06:55:41;;;;;;;17.55;2.60;;;;;;;;;;5097922;28;20454;-77
2023/11/01 06:58:08;;;;;;;15.73;2.08;;;;;;;;;;5101187;28;20438;-77
2023/11/01 07:00:37;;;;;;;16.00;2.20;;;;;;;;;;5099441;28;20501;-77
2023/11/01 07:03:04;;;;;;;16.30;2.00;;;;;;;;;;5088567;28;20418;-76
2023/11/01 07:05:35;;;;;;;17.67;2.00;;;;;;;;;;5103543;28;20402;-79
2023/11/01 07:08:03;;;;;;;16.10;1.80;;;;;;;;;;5101093;28;20414;-79
2023/11/01 07:10:30;;;;;;;16.50;2.15;;;;;;;;;;5098390;28;20957;-77
2023/11/01 07:12:56;;;;;;;14.98;1.65;;;;;;;;;;5091092;28;20409;-77
2023/11/01 07:15:23;;;;;;;18.80;2.23;;;;;;;;;;5098466;28;20460;-78
2023/11/01 07:17:51;;;;;;;18.65;2.38;;;;;;;;;;5099346;28;20408;-77
2023/11/01 07:20:18;;;;;;;16.65;1.83;;;;;;;;;;5094917;28;20851;-77
2023/11/01 07:22:45;;;;;;;17.13;2.10;;;;;;;;;;5106723;28;20413;-77
2023/11/01 07:25:11;;;;;;;16.33;2.63;;;;;;;;;;5095441;28;20459;-77
2023/11/01 07:27:38;;;;;;;19.57;2.40;;;;;;;;;;5095257;28;21003;-78
2023/11/01 07:30:05;;;;;;;16.20;1.90;;;;;;;;;;5101605;28;20406;-77
2023/11/01 07:32:31;;;;;;;16.20;1.90;;;;;;;;;;5098952;28;20488;-77
2023/11/01 07:34:59;;;;;;;17.77;2.10;;;;;;;;;;5090346;28;20751;-76
2023/11/01 07:37:26;;;;;;;15.80;1.90;;;;;;;;;;5097163;28;20894;-78
2023/11/01 07:39:53;;;;;;;16.08;2.00;;;;;;;;;;5089538;28;20420;-77
2023/11/01 07:42:20;;;;;;;16.98;2.97;;;;;;;;;;5104580;28;20424;-77
2023/11/01 07:44:46;;;;;;;15.40;2.25;;;;;;;;;;5102481;28;20810;-78
2023/11/01 07:47:13;;;;;;;18.27;1.80;;;;;;;;;;5101902;28;20882;-77
2023/11/01 07:49:40;;;;;;;15.88;1.90;;;;;;;;;;5098426;28;20410;-76
2023/11/01 07:52:09;;;;;;;16.60;1.88;;;;;;;;;;5097671;28;20506;-78
2023/11/01 07:54:35;;;;;;;17.85;1.98;;;;;;;;;;5098880;28;20521;-76
2023/11/01 07:57:02;;;;;;;17.30;2.20;;;;;;;;;;5101689;28;20459;-77
2023/11/01 07:59:29;;;;;;;18.23;1.70;;;;;;;;;;5096592;28;20493;-78
2023/11/01 08:01:56;;;;;;;16.15;2.00;;;;;;;;;;5095512;28;20402;-78
2023/11/01 08:04:26;;;;;;;24.00;2.30;;;;;;;;;;5095353;28;20390;-77
2023/11/01 08:06:54;;;;;;;19.02;2.08;;;;;;;;;;5105912;28;20443;-77
2023/11/01 08:09:22;;;;;;;16.65;2.03;;;;;;;;;;5099576;28;20405;-77
2023/11/01 08:11:48;;;;;;;17.00;1.90;;;;;;;;;;5086719;28;20407;-77
2023/11/01 08:14:15;;;;;;;18.35;2.00;;;;;;;;;;5098057;28;20945;-77
2023/11/01 08:16:41;;;;;;;16.88;2.10;;;;;;;;;;5089641;28;20925;-77
2023/11/01 08:19:09;;;;;;;19.50;2.33;;;;;;;;;;5098462;28;20496;-77
2023/11/01 08:21:36;;;;;;;16.65;2.50;;;;;;;;;;5101733;28;20927;-77
2023/11/01 08:24:03;;;;;;;18.60;2.10;;;;;;;;;;5100372;28;20409;-77
2023/11/01 08:26:31;;;;;;;16.10;2.40;;;;;;;;;;5103128;28;20405;-77
2023/11/01 08:28:58;;;;;;;19.83;3.28;;;;;;;;;;5095561;28;20402;-76
2023/11/01 08:31:24;;;;;;;17.70;1.80;;;;;;;;;;5100654;28;20443;-79
2023/11/01 08:33:51;;;;;;;15.00;1.80;;;;;;;;;;5102500;28;20431;-77
2023/11/01 08:36:18;;;;;;;17.02;1.90;;;;;;;;;;5099428;28;20416;-76
2023/11/01 08:38:44;;;;;;;16.90;1.83;;;;;;;;;;5109490;28;20416;-76
2023/11/01 08:41:13;;;;;;;18.77;1.90;;;;;;;;;;5102814;28;20402;-76
2023/11/01 08:43:43;;;;;;;18.42;2.40;;;;;;;;;;5110521;28;20495;-76
2023/11/01 08:46:10;;;;;;;18.70;1.80;;;;;;;;;;5102233;28;20444;-76
2023/11/01 08:48:37;;;;;;;17.02;1.80;;;;;;;;;;5100022;28;20400;-77
2023/11/01 08:51:04;;;;;;;17.10;2.53;;;;;;;;;;5102281;28;20433;-75
2023/11/01 08:53:30;;;;;;;21.13;2.30;;;;;;;;;;5103014;28;20401;-76
2023/11/01 08:55:58;;;;;;;18.08;1.83;;;;;;;;;;5102735;28;20418;-77
2023/11/01 08:58:25;;;;;;;19.90;2.30;;;;;;;;;;5104722;28;20416;-77
2023/11/01 09:00:53;;;;;;;17.77;1.70;;;;;;;;;;5090095;28;20412;-76
2023/11/01 09:03:22;;;;;;;17.77;2.10;;;;;;;;;;5102084;28;20504;-77
2023/11/01 09:05:49;;;;;;;18.90;2.42;;;;;;;;;;5102720;27;20406;-76
2023/11/01 09:08:16;;;;;;;19.13;2.00;;;;;;;;;;5102156;28;20419;-76
2023/11/01 09:10:42;;;;;;;15.05;1.70;;;;;;;;;;5102253;28;20409;-76
2023/11/01 09:13:09;;;;;;;19.60;2.00;;;;;;;;;;5083204;28;20414;-77
2023/11/01 09:15:35;;;;;;;16.92;1.70;;;;;;;;;;5109755;28;20434;-76
2023/11/01 09:18:04;;;;;;;16.30;1.73;;;;;;;;;;5099076;28;20437;-78
2023/11/01 09:20:30;;;;;;;16.40;1.90;;;;;;;;;;5103396;28;20456;-77
2023/11/01 09:22:58;;;;;;;16.23;1.70;;;;;;;;;;5099296;28;20409;-78
2023/11/01 09:25:27;;;;;;;16.15;1.85;;;;;;;;;;5099793;28;20406;-78
2023/11/01 09:27:53;;;;;;;16.30;1.75;;;;;;;;;;5100982;28;20400;-76
2023/11/01 09:30:20;;;;;;;18.65;1.80;;;;;;;;;;5109992;28;20398;-76
2023/11/01 09:32:46;;;;;;;19.45;2.15;;;;;;;;;;5107870;28;20412;-76
2023/11/01 09:35:15;;;;;;;28.13;2.40;;;;;;;;;;5101449;28;20417;-77
2023/11/01 09:37:41;;;;;;;16.33;1.52;;;;;;;;;;5081751;28;20422;-75
2023/11/01 09:40:12;;;;;;;17.95;1.80;;;;;;;;;;5091914;28;20457;-75
2023/11/01 09:42:39;;;;;;;17.42;1.60;;;;;;;;;;5108297;28;20417;-76
2023/11/01 09:45:09;;;;;;;20.98;2.00;;;;;;;;;;5101177;28;21065;-77
2023/11/01 09:47:36;;;;;;;17.70;1.70;;;;;;;;;;5100121;28;20423;-76
2023/11/01 09:50:05;;;;;;;16.10;1.50;;;;;;;;;;5103845;28;20931;-77
2023/11/01 09:52:33;;;;;;;16.40;1.80;;;;;;;;;;5092362;28;20412;-77
2023/11/01 09:55:03;;;;;;;19.57;1.60;;;;;;;;;;5083997;28;20892;-76
2023/11/01 09:57:32;;;;;;;17.30;1.55;;;;;;;;;;5108992;28;20448;-75
2023/11/01 10:00:00;;;;;;;21.00;1.90;;;;;;;;;;5093007;28;20927;-76
2023/11/01 10:02:30;;;;;;;16.20;1.67;;;;;;;;;;5099762;28;20473;-76
2023/11/01 10:04:57;;;;;;;15.77;1.47;;;;;;;;;;5092060;28;20493;-76
2023/11/01 10:07:24;;;;;;;21.08;1.60;;;;;;;;;;5102100;28;20413;-75
2023/11/01 10:09:52;;;;;;;14.70;1.50;;;;;;;;;;5103646;28;20406;-77
2023/11/01 10:12:19;;;;;;;15.80;1.70;;;;;;;;;;5105492;28;20751;-75
2023/11/01 10:14:46;;;;;;;19.73;1.95;;;;;;;;;;5098382;28;20432;-78
2023/11/01 10:17:13;;;;;;;15.40;1.47;;;;;;;;;;5101814;28;20439;-76
2023/11/01 10:19:41;;;;;;;16.42;1.80;;;;;;;;;;5098243;28;20456;-76
2023/11/01 10:22:09;;;;;;;15.57;1.75;;;;;;;;;;5099490;28;20505;-76
2023/11/01 10:24:36;;;;;;;16.40;1.50;;;;;;;;;;5099320;28;20509;-76
2023/11/01 10:27:04;;;;;;;18.10;1.80;;;;;;;;;;5087053;28;20419;-76
2023/11/01 10:29:40;;;;;;;17.30;1.70;;;;;;;;;;5092725;28;20495;-75
2023/11/01 10:32:09;;;;;;;16.70;1.90;;;;;;;;;;5108457;28;20475;-76
2023/11/01 10:34:36;;;;;;;18.05;2.03;;;;;;;;;;5100325;28;20511;-75
2023/11/01 10:37:04;;;;;;;18.35;1.50;;;;;;;;;;5099988;28;20404;-75
2023/11/01 10:39:36;;;;;;;16.80;1.70;;;;;;;;;;5101160;28;20856;-76
2023/11/01 10:42:04;;;;;;;17.70;1.80;;;;;;;;;;5085497;28;20456;-75
2023/11/01 10:44:31;;;;;;;15.60;1.40;;;;;;;;;;5102727;28;20570;-76
2023/11/01 10:46:59;;;;;;;16.83;1.45;;;;;;;;;;5098428;28;21008;-76
2023/11/01 10:49:26;;;;;;;19.05;1.73;;;;;;;;;;5098072;28;20421;-76
2023/11/01 10:51:53;;;;;;;15.35;1.50;;;;;;;;;;5100082;28;21333;-77
2023/11/01 10:54:23;;;;;;;17.00;2.70;;;;;;;;;;5089390;28;21278;-79
2023/11/01 10:56:50;;;;;;;17.52;1.73;;;;;;;;;;5105095;28;20467;-77
2023/11/01 10:59:22;;;;;;;18.50;1.77;;;;;;;;;;5096954;28;20414;-78
2023/11/01 11:01:50;;;;;;;16.27;1.63;;;;;;;;;;5090717;28;20398;-77
2023/11/01 11:04:22;;;;;;;19.08;1.70;;;;;;;;;;5082844;28;20406;-75
2023/11/01 11:06:54;;;;;;;17.08;1.70;;;;;;;;;;5096163;28;20874;-79
2023/11/01 11:09:24;;;;;;;19.08;2.40;;;;;;;;;;5096545;28;20415;-75
2023/11/01 11:12:09;;;;;;;17.60;1.60;;;;;;;;;;5090692;28;21181;-76
2023/11/01 11:14:41;;;;;;;18.23;1.73;;;;;;;;;;5099715;28;20448;-77
2023/11/01 11:17:08;;;;;;;15.77;1.60;;;;;;;;;;5099245;28;20442;-79
2023/11/01 11:19:54;;;;;;;17.50;1.58;;;;;;;;;;5097598;28;20405;-78
2023/11/01 11:22:20;;;;;;;16.42;1.73;;;;;;;;;;5098918;28;20411;-76
2023/11/01 11:24:47;;;;;;;18.80;1.73;;;;;;;;;;5096674;28;20457;-77
2023/11/01 11:27:33;;;;;;;16.85;1.65;;;;;;;;;;5105367;28;21220;-76
2023/11/01 11:30:01;;;;;;;18.30;1.80;;;;;;;;;;5099025;28;20483;-78
2023/11/01 11:32:28;;;;;;;23.90;2.80;;;;;;;;;;5105516;28;20837;-77
2023/11/01 11:35:14;;;;;;;16.50;1.60;;;;;;;;;;5095925;28;20546;-75
2023/11/01 11:37:41;;;;;;;18.67;2.00;;;;;;;;;;5096576;28;20927;-76
2023/11/01 11:40:08;;;;;;;16.30;1.80;;;;;;;;;;5081846;28;20491;-76
2023/11/01 11:42:48;;;;;;;16.10;1.80;;;;;;;;;;5099351;28;20400;-75
2023/11/01 11:45:26;;;;;;;15.90;1.80;;;;;;;;;;5106931;28;20398;-75
2023/11/01 11:47:52;;;;;;;15.48;1.65;;;;;;;;;;5097268;28;20881;-76
2023/11/01 11:50:20;;;;;;;19.45;1.85;;;;;;;;;;5095427;28;20448;-75
2023/11/01 11:52:46;;;;;;;16.83;2.90;;;;;;;;;;5099560;28;20906;-78
2023/11/01 11:55:13;;;;;;;16.65;2.28;;;;;;;;;;5101094;28;20413;-76
2023/11/01 11:57:39;;;;;;;20.10;2.00;;;;;;;;;;5100171;28;20773;-75
2023/11/01 12:00:10;;;;;;;;;;;;;;;;;;5097855;28;20447;-74
2023/11/01 12:02:38;;;;;;;19.65;2.10;;;;;;;;;;5098442;28;20426;-75
2023/11/01 12:05:06;;;;;;;16.52;1.60;;;;;;;;;;5099928;28;21051;-75
2023/11/01 12:07:40;;;;;;;17.75;1.80;;;;;;;;;;5085428;28;21001;-76
2023/11/01 12:10:08;;;;;;;18.52;2.10;;;;;;;;;;5102606;28;20402;-76
2023/11/01 12:12:35;;;;;;;16.42;2.20;;;;;;;;;;5084938;28;20412;-75
2023/11/01 12:15:02;;;;;;;19.95;1.80;;;;;;;;;;5098962;28;20504;-76
2023/11/01 12:17:29;;;;;;;17.85;2.40;;;;;;;;;;5100583;28;20412;-76
2023/11/01 12:19:57;;;;;;;18.42;2.60;;;;;;;;;;5102764;28;20410;-77
2023/11/01 12:22:25;;;;;;;17.10;1.60;;;;;;;;;;5105198;28;20407;-75
2023/11/01 12:24:55;;;;;;;16.48;1.70;;;;;;;;;;5104406;28;20756;-75
2023/11/01 12:27:28;;;;;;;16.50;2.30;;;;;;;;;;5103225;28;20958;-74
2023/11/01 12:29:55;;;;;;;18.40;2.00;;;;;;;;;;5084967;28;20441;-75
2023/11/01 12:32:28;;;;;;;17.83;1.90;;;;;;;;;;5087171;28;20431;-76
2023/11/01 12:35:04;;;;;;;15.88;1.70;;;;;;;;;;5093004;28;20448;-73
2023/11/01 12:37:31;;;;;;;16.13;1.90;;;;;;;;;;5103233;28;20419;-76
2023/11/01 12:39:59;;;;;;;22.15;2.50;;;;;;;;;;5087285;28;20468;-75
2023/11/01 12:42:26;;;;;;;16.52;1.60;;;;;;;;;;5100667;28;20408;-76
2023/11/01 12:44:54;;;;;;;18.95;1.60;;;;;;;;;;5104200;28;20455;-74
2023/11/01 12:47:21;;;;;;;17.40;1.60;;;;;;;;;;5104822;28;20405;-76
2023/11/01 12:49:49;;;;;;;19.10;2.20;;;;;;;;;;5105609;28;20512;-75
2023/11/01 12:52:20;;;;;;;15.05;1.48;;;;;;;;;;5098768;28;20837;-75
2023/11/01 12:54:47;;;;;;;19.42;2.10;;;;;;;;;;5100444;28;20416;-75
2023/11/01 12:57:14;;;;;;;18.20;1.90;;;;;;;;;;5105020;28;20935;-76
2023/11/01 12:59:41;;;;;;;16.92;2.00;;;;;;;;;;5101043;28;20946;-74
2023/11/01 13:02:08;;;;;;;19.90;2.65;;;;;;;;;;5100905;28;20411;-75
2023/11/01 13:04:36;;;;;;;18.20;1.85;;;;;;;;;;5104475;28;20833;-75
2023/11/01 13:07:03;;;;;;;17.92;2.40;;;;;;;;;;5100025;28;20410;-76
2023/11/01 13:09:31;;;;;;;20.30;2.60;;;;;;;;;;5101704;28;20416;-76
2023/11/01 13:11:58;;;;;;;16.52;2.10;;;;;;;;;;5088845;28;20419;-75
2023/11/01 13:14:25;;;;;;;18.05;2.00;;;;;;;;;;5102267;28;20411;-75
2023/11/01 13:16:52;;;;;;;18.08;2.00;;;;;;;;;;5093141;28;20488;-75
2023/11/01 13:19:19;;;;;;;19.00;1.70;;;;;;;;;;5100170;28;20400;-73
2023/11/01 13:21:45;;;;;;;19.20;2.67;;;;;;;;;;5097296;28;20430;-74
2023/11/01 13:24:12;;;;;;;19.40;2.60;;;;;;;;;;5093053;28;20917;-74
2023/11/01 13:26:40;;;;;;;14.88;1.80;;;;;;;;;;5102173;28;20918;-74
2023/11/01 13:29:07;;;;;;;20.83;2.90;;;;;;;;;;5091983;28;20488;-76
2023/11/01 13:31:33;;;;;;;17.25;2.08;;;;;;;;;;5102755;28;20405;-76
2023/11/01 13:34:00;;;;;;;19.10;2.50;;;;;;;;;;5102286;28;20440;-73
2023/11/01 13:36:26;;;;;;;16.90;1.85;;;;;;;;;;5084677;28;20412;-77
2023/11/01 13:38:54;;;;;;;18.88;2.58;;;;;;;;;;5102398;28;20479;-74
2023/11/01 13:41:20;;;;;;;16.15;1.95;;;;;;;;;;5101559;28;20406;-75
2023/11/01 13:43:48;;;;;;;17.60;2.30;;;;;;;;;;5099314;28;20413;-77
2023/11/01 13:46:15;;;;;;;16.30;2.10;;;;;;;;;;5104414;28;20788;-75
2023/11/01 13:48:41;;;;;;;17.52;2.00;;;;;;;;;;5099537;28;20400;-76
2023/11/01 13:51:09;;;;;;;20.83;3.10;;;;;;;;;;5099048;28;20525;-75
2023/11/01 13:53:36;;;;;;;17.00;2.20;;;;;;;;;;5098823;28;20745;-75
2023/11/01 13:56:03;;;;;;;15.77;1.98;;;;;;;;;;5093805;28;20416;-75
2023/11/01 13:58:35;;;;;;;17.05;2.90;;;;;;;;;;5101344;28;20413;-75
2023/11/01 14:01:03;;;;;;;16.20;2.50;;;;;;;;;;5091257;28;20424;-75
2023/11/01 14:03:32;;;;;;;19.65;2.72;;;;;;;;;;5093276;28;20408;-75
2023/11/01 14:05:59;;;;;;;18.70;2.40;;;;;;;;;;5090775;28;20513;-75
2023/11/01 14:08:26;;;;;;;20.20;2.40;;;;;;;;;;5098875;28;20492;-75
2023/11/01 14:10:53;;;;;;;22.00;3.90;;;;;;;;;;5100387;28;20407;-75
2023/11/01 14:13:20;;;;;;;17.65;3.08;;;;;;;;;;5099414;28;20418;-74
2023/11/01 14:15:48;;;;;;;18.70;2.67;;;;;;;;;;5097954;28;20451;-76
2023/11/01 14:18:19;;;;;;;17.13;2.78;;;;;;;;;;5102830;28;20401;-74
2023/11/01 14:20:49;;;;;;;17.97;2.50;;;;;;;;;;5102298;28;20414;-75
2023/11/01 14:23:16;;;;;;;19.33;2.50;;;;;;;;;;5104446;28;20404;-75
2023/11/01 14:25:44;;;;;;;18.27;2.40;;;;;;;;;;5097286;28;20469;-75
2023/11/01 14:28:11;;;;;;;17.70;2.17;;;;;;;;;;5097393;28;20474;-74
2023/11/01 14:30:39;;;;;;;18.50;2.90;;;;;;;;;;5100233;28;20463;-75
2023/11/01 14:33:05;;;;;;;17.60;2.50;;;;;;;;;;5099132;28;20483;-76